Time,TemperatureF,DewpointF,PressureIn,WindDirection,WindDirectionDegrees,WindSpeedMPH,WindSpeedGustMPH,Humidity,HourlyPrecipIn,Conditions,Clouds,dailyrainin,SoftwareType,DateUTC
2013-07-13 00:01:00,76.8,62.3,29.78,SW,219,7.0,11.0,61,0.00,,---,0.00,VWS V14.01,2013-07-13 05:01:00,
2013-07-13 00:06:00,76.8,62.8,29.78,SSW,212,7.0,14.0,62,0.00,,---,0.00,VWS V14.01,2013-07-13 05:06:00,
2013-07-13 00:11:00,76.8,62.8,29.78,SW,224,7.0,12.0,62,0.00,,---,0.00,VWS V14.01,2013-07-13 05:11:00,
2013-07-13 00:16:00,76.8,62.3,29.77,SSW,205,13.0,19.0,61,0.00,,---,0.00,VWS V14.01,2013-07-13 05:16:00,
2013-07-13 00:21:00,76.8,62.3,29.77,SSW,205,8.0,14.0,61,0.00,,---,0.00,VWS V14.01,2013-07-13 05:21:00,
2013-07-13 00:26:00,76.7,62.2,29.77,WSW,243,9.0,18.0,61,0.00,,---,0.00,VWS V14.01,2013-07-13 05:26:00,
2013-07-13 00:31:00,76.8,62.3,29.77,SSW,213,6.0,13.0,61,0.00,,---,0.00,VWS V14.01,2013-07-13 05:31:00,
2013-07-13 00:36:00,76.7,63.2,29.77,WSW,247,6.0,13.0,63,0.00,,---,0.00,VWS V14.01,2013-07-13 05:36:00,
2013-07-13 00:41:00,76.3,63.7,29.77,SW,233,7.0,10.0,65,0.00,,---,0.00,VWS V14.01,2013-07-13 05:41:00,
2013-07-13 00:46:00,73.5,65.5,29.80,SSW,209,5.0,16.0,76,0.14,,---,0.14,VWS V14.01,2013-07-13 05:46:00,
2013-07-13 00:51:00,71.1,65.7,29.80,SW,226,10.0,10.0,83,0.15,,---,0.15,VWS V14.01,2013-07-13 05:51:00,
2013-07-13 00:56:00,70.6,65.9,29.80,SW,236,8.0,12.0,85,0.18,,---,0.18,VWS V14.01,2013-07-13 05:56:00,
2013-07-13 01:01:00,69.9,66.2,29.81,SSW,209,2.0,4.0,88,0.22,,---,0.22,VWS V14.01,2013-07-13 06:01:00,
2013-07-13 01:06:00,69.6,66.5,29.81,SSW,199,2.0,8.0,90,0.22,,---,0.22,VWS V14.01,2013-07-13 06:06:00,
2013-07-13 01:11:00,69.8,66.4,29.81,South,188,5.0,7.0,89,0.23,,---,0.23,VWS V14.01,2013-07-13 06:11:00,
2013-07-13 01:16:00,69.8,66.4,29.81,South,179,0.0,7.0,89,0.23,,---,0.23,VWS V14.01,2013-07-13 06:16:00,
2013-07-13 01:21:00,69.6,66.5,29.81,SE,145,0.0,2.0,90,0.24,,---,0.24,VWS V14.01,2013-07-13 06:21:00,
2013-07-13 01:26:00,69.3,66.6,29.81,SE,143,0.0,2.0,91,0.24,,---,0.24,VWS V14.01,2013-07-13 06:26:00,
2013-07-13 01:31:00,69.3,66.6,29.80,South,172,2.0,3.0,91,0.24,,---,0.24,VWS V14.01,2013-07-13 06:31:00,
2013-07-13 01:36:00,69.4,66.7,29.80,South,184,8.0,10.0,91,0.24,,---,0.24,VWS V14.01,2013-07-13 06:36:00,
2013-07-13 01:41:00,69.6,66.5,29.80,SSW,193,10.0,10.0,90,0.24,,---,0.24,VWS V14.01,2013-07-13 06:41:00,
2013-07-13 01:46:00,69.8,66.4,29.80,South,189,7.0,12.0,89,0.25,,---,0.25,VWS V14.01,2013-07-13 06:46:00,
2013-07-13 01:51:00,69.8,66.7,29.80,South,179,10.0,10.0,90,0.10,,---,0.25,VWS V14.01,2013-07-13 06:51:00,
2013-07-13 01:56:00,69.6,66.5,29.80,SSW,210,10.0,13.0,90,0.10,,---,0.25,VWS V14.01,2013-07-13 06:56:00,
2013-07-13 02:01:00,69.4,67.0,29.80,SSW,202,10.0,10.0,92,0.03,,---,0.25,VWS V14.01,2013-07-13 07:01:00,
2013-07-13 02:06:00,69.3,66.9,29.80,SSW,195,11.0,13.0,92,0.03,,---,0.25,VWS V14.01,2013-07-13 07:06:00,
2013-07-13 02:11:00,69.3,66.9,29.80,SSW,208,6.0,11.0,92,0.02,,---,0.25,VWS V14.01,2013-07-13 07:11:00,
2013-07-13 02:16:00,69.3,66.9,29.80,South,169,12.0,14.0,92,0.02,,---,0.25,VWS V14.01,2013-07-13 07:16:00,
2013-07-13 02:21:00,69.1,67.0,29.80,SSW,208,3.0,6.0,93,0.01,,---,0.25,VWS V14.01,2013-07-13 07:21:00,
2013-07-13 02:26:00,68.9,66.8,29.80,SSW,195,8.0,10.0,93,0.01,,---,0.25,VWS V14.01,2013-07-13 07:26:00,
2013-07-13 02:31:00,68.9,66.8,29.80,SSW,206,10.0,11.0,93,0.01,,---,0.25,VWS V14.01,2013-07-13 07:31:00,
2013-07-13 02:36:00,68.9,66.8,29.80,South,189,10.0,18.0,93,0.01,,---,0.25,VWS V14.01,2013-07-13 07:36:00,
2013-07-13 02:41:00,68.9,66.5,29.80,SSW,205,3.0,9.0,92,0.01,,---,0.25,VWS V14.01,2013-07-13 07:41:00,
2013-07-13 02:46:00,68.9,66.5,29.79,SSW,206,5.0,13.0,92,0.01,,---,0.25,VWS V14.01,2013-07-13 07:46:00,
2013-07-13 02:51:00,68.9,66.8,29.79,South,184,6.0,8.0,93,0.00,,---,0.25,VWS V14.01,2013-07-13 07:51:00,
2013-07-13 02:56:00,68.9,66.8,29.79,SSW,200,6.0,12.0,93,0.00,,---,0.25,VWS V14.01,2013-07-13 07:56:00,
2013-07-13 03:01:00,68.8,67.0,29.79,SSW,203,11.0,16.0,94,0.00,,---,0.25,VWS V14.01,2013-07-13 08:01:00,
2013-07-13 03:06:00,68.8,67.0,29.79,SSW,205,7.0,16.0,94,0.00,,---,0.25,VWS V14.01,2013-07-13 08:06:00,
2013-07-13 03:11:00,68.8,67.0,29.79,SSW,193,7.0,8.0,94,0.00,,---,0.25,VWS V14.01,2013-07-13 08:11:00,
2013-07-13 03:16:00,68.8,67.0,29.79,SW,215,3.0,11.0,94,0.00,,---,0.25,VWS V14.01,2013-07-13 08:16:00,
2013-07-13 03:21:00,68.8,67.0,29.79,SSW,202,4.0,5.0,94,0.00,,---,0.25,VWS V14.01,2013-07-13 08:21:00,
2013-07-13 03:26:00,68.6,66.8,29.79,South,175,6.0,8.0,94,0.00,,---,0.25,VWS V14.01,2013-07-13 08:26:00,
2013-07-13 03:31:00,68.6,66.8,29.80,SSW,192,7.0,7.0,94,0.00,,---,0.25,VWS V14.01,2013-07-13 08:31:00,
2013-07-13 03:36:00,68.6,66.8,29.80,South,184,5.0,8.0,94,0.00,,---,0.25,VWS V14.01,2013-07-13 08:36:00,
2013-07-13 03:41:00,68.6,66.8,29.80,South,191,11.0,11.0,94,0.00,,---,0.25,VWS V14.01,2013-07-13 08:41:00,
2013-07-13 03:46:00,68.8,67.0,29.81,SSW,195,7.0,12.0,94,0.00,,---,0.25,VWS V14.01,2013-07-13 08:46:00,
2013-07-13 03:51:00,68.8,66.7,29.81,South,191,12.0,13.0,93,0.00,,---,0.25,VWS V14.01,2013-07-13 08:51:00,
2013-07-13 03:56:00,68.9,66.8,29.81,South,185,9.0,16.0,93,0.00,,---,0.25,VWS V14.01,2013-07-13 08:56:00,
2013-07-13 04:01:00,68.9,66.5,29.81,SSW,199,6.0,10.0,92,0.00,,---,0.25,VWS V14.01,2013-07-13 09:01:00,
2013-07-13 04:06:00,69.1,66.7,29.81,SSW,198,7.0,12.0,92,0.00,,---,0.25,VWS V14.01,2013-07-13 09:06:00,
2013-07-13 04:11:00,69.1,66.4,29.81,SSW,210,7.0,7.0,91,0.00,,---,0.25,VWS V14.01,2013-07-13 09:11:00,
2013-07-13 04:16:00,69.3,66.2,29.81,SSW,192,10.0,16.0,90,0.00,,---,0.25,VWS V14.01,2013-07-13 09:16:00,
2013-07-13 04:21:00,69.3,66.2,29.81,SSW,208,11.0,11.0,90,0.00,,---,0.25,VWS V14.01,2013-07-13 09:21:00,
2013-07-13 04:26:00,69.4,66.0,29.81,SSW,212,10.0,18.0,89,0.00,,---,0.25,VWS V14.01,2013-07-13 09:26:00,
2013-07-13 04:31:00,69.4,66.0,29.81,South,188,8.0,10.0,89,0.00,,---,0.25,VWS V14.01,2013-07-13 09:31:00,
2013-07-13 04:36:00,69.3,66.2,29.81,South,181,13.0,14.0,90,0.00,,---,0.25,VWS V14.01,2013-07-13 09:36:00,
2013-07-13 04:41:00,69.3,66.6,29.81,South,172,3.0,5.0,91,0.00,,---,0.25,VWS V14.01,2013-07-13 09:41:00,
2013-07-13 04:46:00,69.1,66.7,29.81,South,174,6.0,12.0,92,0.00,,---,0.25,VWS V14.01,2013-07-13 09:46:00,
2013-07-13 04:51:00,68.9,66.8,29.81,South,189,8.0,8.0,93,0.00,,---,0.25,VWS V14.01,2013-07-13 09:51:00,
2013-07-13 04:56:00,68.9,67.1,29.81,South,186,12.0,12.0,94,0.00,,---,0.25,VWS V14.01,2013-07-13 09:56:00,
2013-07-13 05:01:00,68.8,67.0,29.81,SSW,209,5.0,12.0,94,0.00,,---,0.25,VWS V14.01,2013-07-13 10:01:00,
2013-07-13 05:06:00,68.9,66.8,29.81,South,189,6.0,12.0,93,0.00,,---,0.25,VWS V14.01,2013-07-13 10:06:00,
2013-07-13 05:11:00,68.9,66.8,29.81,SSW,208,11.0,11.0,93,0.00,,---,0.25,VWS V14.01,2013-07-13 10:11:00,
2013-07-13 05:16:00,69.1,67.0,29.81,South,172,5.0,13.0,93,0.00,,---,0.25,VWS V14.01,2013-07-13 10:16:00,
2013-07-13 05:21:00,69.1,67.3,29.81,SSW,192,8.0,13.0,94,0.00,,---,0.25,VWS V14.01,2013-07-13 10:21:00,
2013-07-13 05:26:00,69.1,67.6,29.81,SSW,192,7.0,15.0,95,0.00,,---,0.25,VWS V14.01,2013-07-13 10:26:00,
2013-07-13 05:31:00,68.9,67.4,29.81,SSW,205,11.0,15.0,95,0.00,,---,0.25,VWS V14.01,2013-07-13 10:31:00,
2013-07-13 05:36:00,68.9,67.4,29.81,South,185,6.0,13.0,95,0.00,,---,0.25,VWS V14.01,2013-07-13 10:36:00,
2013-07-13 05:41:00,68.9,67.4,29.81,South,189,10.0,14.0,95,0.00,,---,0.25,VWS V14.01,2013-07-13 10:41:00,
2013-07-13 05:46:00,68.9,67.1,29.82,South,174,12.0,13.0,94,0.00,,---,0.25,VWS V14.01,2013-07-13 10:46:00,
2013-07-13 05:51:00,68.9,66.5,29.82,SSE,161,3.0,14.0,92,0.00,,---,0.25,VWS V14.01,2013-07-13 10:51:00,
2013-07-13 05:56:00,68.9,66.2,29.82,SSW,198,9.0,15.0,91,0.00,,---,0.25,VWS V14.01,2013-07-13 10:56:00,
2013-07-13 06:01:00,68.9,66.2,29.82,SSW,212,10.0,15.0,91,0.00,,---,0.25,VWS V14.01,2013-07-13 11:01:00,
2013-07-13 06:06:00,68.8,66.1,29.82,South,181,6.0,13.0,91,0.00,,---,0.25,VWS V14.01,2013-07-13 11:06:00,
2013-07-13 06:11:00,68.6,65.9,29.82,South,189,11.0,14.0,91,0.00,,---,0.25,VWS V14.01,2013-07-13 11:11:00,
2013-07-13 06:16:00,68.6,65.9,29.83,South,176,16.0,17.0,91,0.00,,---,0.25,VWS V14.01,2013-07-13 11:16:00,
2013-07-13 06:21:00,68.6,65.9,29.83,South,188,7.0,17.0,91,0.00,,---,0.25,VWS V14.01,2013-07-13 11:21:00,
2013-07-13 06:26:00,68.6,65.9,29.83,South,185,12.0,16.0,91,0.00,,---,0.25,VWS V14.01,2013-07-13 11:26:00,
2013-07-13 06:31:00,68.6,65.9,29.83,South,179,13.0,16.0,91,0.00,,---,0.25,VWS V14.01,2013-07-13 11:31:00,
2013-07-13 06:35:00,68.6,65.9,29.83,South,174,9.0,20.0,91,0.00,,---,0.25,VWS V14.01,2013-07-13 11:35:00,
2013-07-13 06:40:00,68.6,65.9,29.83,SSW,208,10.0,20.0,91,0.00,,---,0.25,VWS V14.01,2013-07-13 11:40:00,
2013-07-13 06:45:00,68.6,65.9,29.85,South,175,13.0,18.0,91,0.00,,---,0.25,VWS V14.01,2013-07-13 11:45:00,
2013-07-13 06:50:00,68.4,65.7,29.85,South,191,13.0,19.0,91,0.00,,---,0.25,VWS V14.01,2013-07-13 11:50:00,
2013-07-13 06:55:00,68.4,65.7,29.85,SSW,203,13.0,20.0,91,0.00,,---,0.25,VWS V14.01,2013-07-13 11:55:00,
2013-07-13 07:00:00,68.3,65.9,29.85,SSW,196,10.0,20.0,92,0.00,,---,0.25,VWS V14.01,2013-07-13 12:00:00,
2013-07-13 07:05:00,68.3,65.9,29.85,South,188,11.0,18.0,92,0.00,,---,0.25,VWS V14.01,2013-07-13 12:05:00,
2013-07-13 07:10:00,68.3,65.6,29.85,South,184,11.0,18.0,91,0.00,,---,0.25,VWS V14.01,2013-07-13 12:10:00,
2013-07-13 07:15:00,68.3,65.9,29.85,South,174,12.0,14.0,92,0.00,,---,0.25,VWS V14.01,2013-07-13 12:15:00,
2013-07-13 07:20:00,68.3,65.6,29.85,SSW,193,12.0,17.0,91,0.00,,---,0.25,VWS V14.01,2013-07-13 12:20:00,
2013-07-13 07:25:00,68.3,65.6,29.85,SSE,167,13.0,18.0,91,0.00,,---,0.25,VWS V14.01,2013-07-13 12:25:00,
2013-07-13 07:30:00,68.4,65.4,29.86,SSW,200,11.0,18.0,90,0.00,,---,0.25,VWS V14.01,2013-07-13 12:30:00,
2013-07-13 07:35:00,68.4,65.4,29.86,SSW,198,10.0,18.0,90,0.00,,---,0.25,VWS V14.01,2013-07-13 12:35:00,
2013-07-13 07:40:00,68.6,65.6,29.86,SSW,209,8.0,18.0,90,0.00,,---,0.25,VWS V14.01,2013-07-13 12:40:00,
2013-07-13 07:45:00,68.6,65.2,29.86,SSW,209,11.0,18.0,89,0.00,,---,0.25,VWS V14.01,2013-07-13 12:45:00,
2013-07-13 07:50:00,68.8,65.1,29.86,SSW,203,11.0,18.0,88,0.00,,---,0.25,VWS V14.01,2013-07-13 12:50:00,
2013-07-13 07:55:00,68.9,64.9,29.86,South,176,13.0,18.0,87,0.00,,---,0.25,VWS V14.01,2013-07-13 12:55:00,
2013-07-13 08:00:00,69.1,65.1,29.85,SW,216,13.0,18.0,87,0.00,,---,0.25,VWS V14.01,2013-07-13 13:00:00,
2013-07-13 08:05:00,69.4,65.0,29.85,SW,215,12.0,14.0,86,0.00,,---,0.25,VWS V14.01,2013-07-13 13:05:00,
2013-07-13 08:10:00,69.6,64.9,29.85,SSW,199,12.0,16.0,85,0.00,,---,0.25,VWS V14.01,2013-07-13 13:10:00,
2013-07-13 08:15:00,69.8,64.8,29.85,SSW,205,8.0,17.0,84,0.00,,---,0.25,VWS V14.01,2013-07-13 13:15:00,
2013-07-13 08:20:00,69.9,64.8,29.85,SSW,193,14.0,21.0,84,0.00,,---,0.25,VWS V14.01,2013-07-13 13:20:00,
2013-07-13 08:25:00,70.1,65.4,29.85,SSW,205,11.0,19.0,85,0.00,,---,0.25,VWS V14.01,2013-07-13 13:25:00,
2013-07-13 08:30:00,70.1,65.1,29.84,SSW,192,12.0,19.0,84,0.00,,---,0.25,VWS V14.01,2013-07-13 13:30:00,
2013-07-13 08:35:00,70.3,64.9,29.84,SW,215,16.0,20.0,83,0.00,,---,0.25,VWS V14.01,2013-07-13 13:35:00,
2013-07-13 08:40:00,70.3,64.9,29.84,SSW,199,11.0,20.0,83,0.00,,---,0.25,VWS V14.01,2013-07-13 13:40:00,
2013-07-13 08:45:00,70.3,64.9,29.85,SW,216,6.0,14.0,83,0.00,,---,0.25,VWS V14.01,2013-07-13 13:45:00,
2013-07-13 08:50:00,70.4,65.3,29.85,SSW,212,3.0,18.0,84,0.00,,---,0.25,VWS V14.01,2013-07-13 13:50:00,
2013-07-13 08:55:00,70.4,65.3,29.85,South,176,5.0,17.0,84,0.00,,---,0.25,VWS V14.01,2013-07-13 13:55:00,
2013-07-13 09:00:00,70.4,65.3,29.85,SSW,199,13.0,18.0,84,0.00,,---,0.25,VWS V14.01,2013-07-13 14:00:00,
2013-07-13 09:05:00,70.4,65.3,29.85,South,189,19.0,19.0,84,0.00,,---,0.25,VWS V14.01,2013-07-13 14:05:00,
2013-07-13 09:10:00,70.6,65.5,29.85,WSW,251,10.0,19.0,84,0.00,,---,0.25,VWS V14.01,2013-07-13 14:10:00,
2013-07-13 09:15:00,70.8,65.4,29.86,South,184,14.0,19.0,83,0.00,,---,0.25,VWS V14.01,2013-07-13 14:15:00,
2013-07-13 09:20:00,70.8,65.4,29.86,SSW,212,11.0,19.0,83,0.00,,---,0.25,VWS V14.01,2013-07-13 14:20:00,
2013-07-13 09:25:00,70.8,65.4,29.86,SW,234,8.0,18.0,83,0.00,,---,0.25,VWS V14.01,2013-07-13 14:25:00,
2013-07-13 09:30:00,70.4,65.3,29.86,WSW,240,17.0,18.0,84,0.00,,---,0.25,VWS V14.01,2013-07-13 14:30:00,
2013-07-13 09:35:00,70.4,65.3,29.86,SSW,206,14.0,14.0,84,0.00,,---,0.25,VWS V14.01,2013-07-13 14:35:00,
2013-07-13 09:40:00,70.4,65.3,29.86,South,185,13.0,17.0,84,0.00,,---,0.25,VWS V14.01,2013-07-13 14:40:00,
2013-07-13 09:45:00,70.4,65.3,29.85,SSW,205,11.0,20.0,84,0.00,,---,0.25,VWS V14.01,2013-07-13 14:45:00,
2013-07-13 09:50:00,70.4,65.3,29.85,SW,223,12.0,22.0,84,0.00,,---,0.25,VWS V14.01,2013-07-13 14:50:00,
2013-07-13 09:55:00,70.4,65.0,29.85,SSW,200,13.0,21.0,83,0.00,,---,0.25,VWS V14.01,2013-07-13 14:55:00,
2013-07-13 10:00:00,70.4,65.3,29.85,SW,223,12.0,21.0,84,0.00,,---,0.25,VWS V14.01,2013-07-13 15:00:00,
2013-07-13 10:05:00,70.4,65.3,29.85,SSW,198,11.0,19.0,84,0.00,,---,0.25,VWS V14.01,2013-07-13 15:05:00,
2013-07-13 10:10:00,70.3,65.2,29.85,SW,216,10.0,19.0,84,0.00,,---,0.25,VWS V14.01,2013-07-13 15:10:00,
2013-07-13 10:15:00,70.4,65.7,29.86,SSW,205,11.0,20.0,85,0.00,,---,0.25,VWS V14.01,2013-07-13 15:15:00,
2013-07-13 10:20:00,70.4,65.3,29.86,SW,234,7.0,20.0,84,0.00,,---,0.25,VWS V14.01,2013-07-13 15:20:00,
2013-07-13 10:25:00,70.3,65.2,29.86,SSW,206,8.0,19.0,84,0.00,,---,0.25,VWS V14.01,2013-07-13 15:25:00,
2013-07-13 10:30:00,70.3,65.2,29.86,SSW,206,11.0,19.0,84,0.00,,---,0.25,VWS V14.01,2013-07-13 15:30:00,
2013-07-13 10:35:00,69.9,64.5,29.86,SW,227,17.0,21.0,83,0.00,,---,0.25,VWS V14.01,2013-07-13 15:35:00,
2013-07-13 10:40:00,69.9,65.2,29.86,SSW,198,7.0,21.0,85,0.00,,---,0.25,VWS V14.01,2013-07-13 15:40:00,
2013-07-13 10:45:00,70.1,65.1,29.87,SSW,195,8.0,16.0,84,0.00,,---,0.25,VWS V14.01,2013-07-13 15:45:00,
2013-07-13 10:50:00,70.1,65.1,29.87,SW,229,14.0,16.0,84,0.00,,---,0.25,VWS V14.01,2013-07-13 15:50:00,
2013-07-13 10:55:00,70.1,65.1,29.87,SSW,210,5.0,18.0,84,0.00,,---,0.25,VWS V14.01,2013-07-13 15:55:00,
2013-07-13 11:00:00,70.4,65.0,29.87,SW,232,11.0,18.0,83,0.00,,---,0.25,VWS V14.01,2013-07-13 16:00:00,
2013-07-13 11:05:00,70.6,64.8,29.87,WSW,256,11.0,18.0,82,0.00,,---,0.25,VWS V14.01,2013-07-13 16:05:00,
2013-07-13 11:10:00,70.8,64.7,29.87,SSW,205,10.0,18.0,81,0.00,,---,0.25,VWS V14.01,2013-07-13 16:10:00,
2013-07-13 11:15:00,70.9,64.8,29.87,WSW,239,8.0,16.0,81,0.00,,---,0.25,VWS V14.01,2013-07-13 16:15:00,
2013-07-13 11:20:00,70.4,64.7,29.87,WSW,248,6.0,16.0,82,0.00,,---,0.25,VWS V14.01,2013-07-13 16:20:00,
2013-07-13 11:25:00,70.3,65.2,29.87,SW,229,9.0,14.0,84,0.00,,---,0.25,VWS V14.01,2013-07-13 16:25:00,
2013-07-13 11:30:00,70.1,65.1,29.87,SW,219,6.0,16.0,84,0.00,,---,0.25,VWS V14.01,2013-07-13 16:30:00,
2013-07-13 11:35:00,69.9,64.8,29.87,SW,230,5.0,12.0,84,0.00,,---,0.25,VWS V14.01,2013-07-13 16:35:00,
2013-07-13 11:40:00,69.9,64.5,29.87,West,263,6.0,12.0,83,0.00,,---,0.25,VWS V14.01,2013-07-13 16:40:00,
2013-07-13 11:45:00,69.9,64.8,29.88,SW,233,5.0,10.0,84,0.00,,---,0.25,VWS V14.01,2013-07-13 16:45:00,
2013-07-13 11:50:00,69.9,64.8,29.88,WSW,254,8.0,13.0,84,0.00,,---,0.25,VWS V14.01,2013-07-13 16:50:00,
2013-07-13 11:55:00,69.9,64.8,29.88,WSW,257,8.0,12.0,84,0.00,,---,0.25,VWS V14.01,2013-07-13 16:55:00,
2013-07-13 12:00:00,69.9,64.8,29.88,SW,227,6.0,12.0,84,0.00,,---,0.25,VWS V14.01,2013-07-13 17:00:00,
2013-07-13 12:05:00,70.1,65.1,29.88,SW,229,6.0,16.0,84,0.00,,---,0.25,VWS V14.01,2013-07-13 17:05:00,
2013-07-13 12:10:00,70.3,65.6,29.88,WSW,239,6.0,16.0,85,0.00,,---,0.25,VWS V14.01,2013-07-13 17:10:00,
2013-07-13 12:15:00,70.4,65.7,29.89,SW,233,5.0,10.0,85,0.00,,---,0.25,VWS V14.01,2013-07-13 17:15:00,
2013-07-13 12:20:00,70.6,65.2,29.89,West,260,7.0,13.0,83,0.00,,---,0.25,VWS V14.01,2013-07-13 17:20:00,
2013-07-13 12:25:00,70.9,65.8,29.89,WSW,241,8.0,12.0,84,0.00,,---,0.25,VWS V14.01,2013-07-13 17:25:00,
2013-07-13 12:30:00,71.5,65.7,29.89,WSW,240,10.0,15.0,82,0.00,,---,0.25,VWS V14.01,2013-07-13 17:30:00,
2013-07-13 12:35:00,71.8,65.7,29.89,SW,227,8.0,13.0,81,0.00,,---,0.25,VWS V14.01,2013-07-13 17:35:00,
2013-07-13 12:40:00,72.3,66.5,29.89,WSW,239,4.0,13.0,82,0.00,,---,0.25,VWS V14.01,2013-07-13 17:40:00,
2013-07-13 12:45:00,72.7,66.2,29.89,SSW,202,6.0,11.0,80,0.00,,---,0.25,VWS V14.01,2013-07-13 17:45:00,
2013-07-13 12:50:00,72.7,66.2,29.89,SW,230,9.0,11.0,80,0.00,,---,0.25,VWS V14.01,2013-07-13 17:50:00,
2013-07-13 12:55:00,72.7,66.2,29.89,WSW,248,7.0,10.0,80,0.00,,---,0.25,VWS V14.01,2013-07-13 17:55:00,
2013-07-13 13:00:00,72.8,66.6,29.89,SW,224,3.0,10.0,81,0.00,,---,0.25,VWS V14.01,2013-07-13 18:00:00,
2013-07-13 13:05:00,72.5,66.0,29.88,SSW,202,6.0,11.0,80,0.00,,---,0.25,VWS V14.01,2013-07-13 18:05:00,
2013-07-13 13:10:00,72.3,66.2,29.88,SSW,205,2.0,11.0,81,0.00,,---,0.25,VWS V14.01,2013-07-13 18:10:00,
2013-07-13 13:15:00,72.1,65.6,29.88,SSW,192,5.0,7.0,80,0.00,,---,0.25,VWS V14.01,2013-07-13 18:15:00,
2013-07-13 13:20:00,72.1,65.9,29.88,SSW,199,5.0,7.0,81,0.00,,---,0.25,VWS V14.01,2013-07-13 18:20:00,
2013-07-13 13:25:00,72.1,65.9,29.88,South,184,3.0,7.0,81,0.00,,---,0.25,VWS V14.01,2013-07-13 18:25:00,
2013-07-13 13:30:00,72.3,66.2,29.88,SE,131,2.0,7.0,81,0.00,,---,0.25,VWS V14.01,2013-07-13 18:30:00,
2013-07-13 13:35:00,72.3,65.4,29.84,ESE,123,5.0,8.0,79,0.00,,---,0.25,VWS V14.01,2013-07-13 18:35:00,
2013-07-13 13:40:00,72.3,66.2,29.84,SSE,160,5.0,8.0,81,0.00,,---,0.25,VWS V14.01,2013-07-13 18:40:00,
2013-07-13 13:45:00,72.3,66.2,29.84,SSE,157,4.0,8.0,81,0.00,,---,0.25,VWS V14.01,2013-07-13 18:45:00,
2013-07-13 13:50:00,72.1,65.9,29.83,ESE,116,5.0,10.0,81,0.00,,---,0.25,VWS V14.01,2013-07-13 18:50:00,
2013-07-13 13:55:00,72.1,65.9,29.83,SE,140,5.0,8.0,81,0.00,,---,0.25,VWS V14.01,2013-07-13 18:55:00,
2013-07-13 14:00:00,72.3,66.2,29.83,South,182,7.0,12.0,81,0.00,,---,0.25,VWS V14.01,2013-07-13 19:00:00,
2013-07-13 14:05:00,72.3,65.8,29.84,SE,126,2.0,10.0,80,0.00,,---,0.25,VWS V14.01,2013-07-13 19:05:00,
2013-07-13 14:10:00,72.3,66.2,29.84,SSE,164,3.0,11.0,81,0.00,,---,0.25,VWS V14.01,2013-07-13 19:10:00,
2013-07-13 14:15:00,72.3,66.2,29.84,South,185,5.0,8.0,81,0.00,,---,0.25,VWS V14.01,2013-07-13 19:15:00,
2013-07-13 14:20:00,72.1,65.9,29.88,SSW,199,5.0,8.0,81,0.00,,---,0.25,VWS V14.01,2013-07-13 19:20:00,
2013-07-13 14:25:00,72.3,66.2,29.88,SW,233,3.0,6.0,81,0.00,,---,0.25,VWS V14.01,2013-07-13 19:25:00,
2013-07-13 14:30:00,72.5,66.7,29.88,West,260,7.0,10.0,82,0.00,,---,0.25,VWS V14.01,2013-07-13 19:30:00,
2013-07-13 14:34:00,72.3,66.5,29.92,WSW,240,6.0,10.0,82,0.00,,---,0.25,VWS V14.01,2013-07-13 19:34:00,
2013-07-13 14:39:00,72.0,66.6,29.92,SW,223,1.0,10.0,83,0.00,,---,0.25,VWS V14.01,2013-07-13 19:39:00,
2013-07-13 14:44:00,71.8,66.7,29.92,WSW,239,0.0,6.0,84,0.00,,---,0.25,VWS V14.01,2013-07-13 19:44:00,
2013-07-13 14:49:00,71.6,67.2,29.91,WSW,251,6.0,6.0,86,0.00,,---,0.25,VWS V14.01,2013-07-13 19:49:00,
2013-07-13 14:54:00,71.5,66.8,29.91,WSW,237,0.0,3.0,85,0.00,,---,0.25,VWS V14.01,2013-07-13 19:54:00,
2013-07-13 14:59:00,71.5,67.1,29.91,SW,234,0.0,3.0,86,0.00,,---,0.25,VWS V14.01,2013-07-13 19:59:00,
2013-07-13 15:04:00,71.5,67.1,29.91,WSW,239,0.0,1.0,86,0.00,,---,0.25,VWS V14.01,2013-07-13 20:04:00,
2013-07-13 15:09:00,71.5,67.1,29.91,WSW,250,0.0,5.0,86,0.00,,---,0.25,VWS V14.01,2013-07-13 20:09:00,
2013-07-13 15:14:00,71.5,67.1,29.91,SSW,205,2.0,3.0,86,0.00,,---,0.25,VWS V14.01,2013-07-13 20:14:00,
2013-07-13 15:19:00,71.5,66.8,29.91,SW,215,0.0,3.0,85,0.00,,---,0.25,VWS V14.01,2013-07-13 20:19:00,
2013-07-13 15:24:00,71.6,66.9,29.91,SW,219,1.0,3.0,85,0.00,,---,0.25,VWS V14.01,2013-07-13 20:24:00,
2013-07-13 15:29:00,71.8,66.7,29.91,SW,217,1.0,6.0,84,0.00,,---,0.25,VWS V14.01,2013-07-13 20:29:00,
2013-07-13 15:34:00,71.8,66.7,29.91,SW,223,0.0,3.0,84,0.00,,---,0.25,VWS V14.01,2013-07-13 20:34:00,
2013-07-13 15:39:00,72.0,67.2,29.91,SW,223,1.0,3.0,85,0.00,,---,0.25,VWS V14.01,2013-07-13 20:39:00,
2013-07-13 15:44:00,72.0,66.9,29.91,South,182,0.0,4.0,84,0.00,,---,0.25,VWS V14.01,2013-07-13 20:44:00,
2013-07-13 15:49:00,72.3,67.2,29.91,SSW,196,1.0,4.0,84,0.00,,---,0.25,VWS V14.01,2013-07-13 20:49:00,
2013-07-13 15:54:00,72.5,67.4,29.91,South,191,1.0,3.0,84,0.00,,---,0.25,VWS V14.01,2013-07-13 20:54:00,
2013-07-13 15:59:00,72.5,67.1,29.91,SSW,200,0.0,3.0,83,0.00,,---,0.25,VWS V14.01,2013-07-13 20:59:00,
2013-07-13 16:04:00,72.7,66.9,29.91,SSW,200,1.0,1.0,82,0.00,,---,0.25,VWS V14.01,2013-07-13 21:04:00,
2013-07-13 16:09:00,72.7,66.9,29.91,SSW,199,0.0,2.0,82,0.00,,---,0.25,VWS V14.01,2013-07-13 21:09:00,
2013-07-13 16:14:00,72.8,66.6,29.91,SSW,199,0.0,0.0,81,0.00,,---,0.25,VWS V14.01,2013-07-13 21:14:00,
2013-07-13 16:19:00,73.2,67.0,29.90,SSW,199,0.0,1.0,81,0.00,,---,0.25,VWS V14.01,2013-07-13 21:19:00,
2013-07-13 16:24:00,73.5,67.0,29.90,SSW,195,0.0,1.0,80,0.00,,---,0.25,VWS V14.01,2013-07-13 21:24:00,
2013-07-13 16:29:00,74.2,67.6,29.90,SSW,196,0.0,1.0,80,0.00,,---,0.25,VWS V14.01,2013-07-13 21:29:00,
2013-07-13 16:34:00,74.2,66.5,29.90,South,175,1.0,3.0,77,0.00,,---,0.25,VWS V14.01,2013-07-13 21:34:00,
2013-07-13 16:39:00,73.9,67.0,29.90,South,179,4.0,5.0,79,0.00,,---,0.25,VWS V14.01,2013-07-13 21:39:00,
2013-07-13 16:44:00,73.9,66.6,29.90,South,172,2.0,2.0,78,0.00,,---,0.25,VWS V14.01,2013-07-13 21:44:00,
2013-07-13 16:49:00,73.9,67.3,29.90,ESE,107,2.0,4.0,80,0.00,,---,0.25,VWS V14.01,2013-07-13 21:49:00,
2013-07-13 16:54:00,74.2,66.9,29.90,SE,130,1.0,5.0,78,0.00,,---,0.25,VWS V14.01,2013-07-13 21:54:00,
2013-07-13 16:59:00,74.2,66.9,29.90,SSE,158,1.0,7.0,78,0.00,,---,0.25,VWS V14.01,2013-07-13 21:59:00,
2013-07-13 17:04:00,74.4,67.5,29.90,South,169,2.0,5.0,79,0.00,,---,0.25,VWS V14.01,2013-07-13 22:04:00,
2013-07-13 17:09:00,74.2,67.3,29.90,SE,140,1.0,6.0,79,0.00,,---,0.25,VWS V14.01,2013-07-13 22:09:00,
2013-07-13 17:14:00,74.0,67.1,29.90,SSE,148,2.0,6.0,79,0.00,,---,0.25,VWS V14.01,2013-07-13 22:14:00,
2013-07-13 17:19:00,74.0,66.7,29.91,SSE,158,1.0,6.0,78,0.00,,---,0.25,VWS V14.01,2013-07-13 22:19:00,
2013-07-13 17:24:00,73.9,66.2,29.91,SSE,157,2.0,7.0,77,0.00,,---,0.25,VWS V14.01,2013-07-13 22:24:00,
2013-07-13 17:29:00,73.9,67.0,29.91,SE,143,5.0,7.0,79,0.00,,---,0.25,VWS V14.01,2013-07-13 22:29:00,
2013-07-13 17:34:00,73.9,67.0,29.91,South,184,4.0,7.0,79,0.00,,---,0.25,VWS V14.01,2013-07-13 22:34:00,
2013-07-13 17:39:00,73.9,67.3,29.91,South,179,3.0,7.0,80,0.00,,---,0.25,VWS V14.01,2013-07-13 22:39:00,
2013-07-13 17:44:00,74.6,68.0,29.91,SSE,160,0.0,4.0,80,0.00,,---,0.25,VWS V14.01,2013-07-13 22:44:00,
2013-07-13 17:49:00,74.9,67.9,29.90,South,185,4.0,6.0,79,0.00,,---,0.25,VWS V14.01,2013-07-13 22:49:00,
2013-07-13 17:54:00,74.9,67.9,29.90,SSE,154,0.0,7.0,79,0.00,,---,0.25,VWS V14.01,2013-07-13 22:54:00,
2013-07-13 17:59:00,74.9,67.6,29.90,South,179,6.0,11.0,78,0.00,,---,0.25,VWS V14.01,2013-07-13 22:59:00,
2013-07-13 18:04:00,74.7,68.1,29.90,South,179,1.0,6.0,80,0.00,,---,0.25,VWS V14.01,2013-07-13 23:04:00,
2013-07-13 18:09:00,74.6,68.0,29.90,SE,134,2.0,6.0,80,0.00,,---,0.25,VWS V14.01,2013-07-13 23:09:00,
2013-07-13 18:14:00,74.2,67.6,29.90,SSE,160,2.0,5.0,80,0.00,,---,0.25,VWS V14.01,2013-07-13 23:14:00,
2013-07-13 18:19:00,74.2,67.6,29.90,South,178,2.0,5.0,80,0.00,,---,0.25,VWS V14.01,2013-07-13 23:19:00,
2013-07-13 18:24:00,73.9,67.7,29.90,ESE,119,2.0,3.0,81,0.00,,---,0.25,VWS V14.01,2013-07-13 23:24:00,
2013-07-13 18:29:00,73.7,67.9,29.90,ESE,121,1.0,4.0,82,0.00,,---,0.25,VWS V14.01,2013-07-13 23:29:00,
2013-07-13 18:34:00,73.5,67.7,29.90,ESE,103,2.0,6.0,82,0.00,,---,0.25,VWS V14.01,2013-07-13 23:34:00,
2013-07-13 18:39:00,73.2,67.7,29.90,SE,126,1.0,6.0,83,0.00,,---,0.25,VWS V14.01,2013-07-13 23:39:00,
2013-07-13 18:44:00,73.2,67.7,29.90,ESE,112,1.0,2.0,83,0.00,,---,0.25,VWS V14.01,2013-07-13 23:44:00,
2013-07-13 18:49:00,72.8,67.3,29.90,SE,130,2.0,4.0,83,0.00,,---,0.25,VWS V14.01,2013-07-13 23:49:00,
2013-07-13 18:54:00,72.7,67.2,29.90,ESE,120,5.0,6.0,83,0.00,,---,0.25,VWS V14.01,2013-07-13 23:54:00,
2013-07-13 18:59:00,72.5,67.4,29.90,South,171,0.0,6.0,84,0.00,,---,0.25,VWS V14.01,2013-07-13 23:59:00,
2013-07-13 19:04:00,72.5,67.7,29.90,SSE,161,2.0,4.0,85,0.00,,---,0.25,VWS V14.01,2013-07-14 00:04:00,
2013-07-13 19:09:00,72.5,68.1,29.90,SE,138,1.0,6.0,86,0.00,,---,0.25,VWS V14.01,2013-07-14 00:09:00,
2013-07-13 19:14:00,72.3,67.9,29.90,South,172,5.0,7.0,86,0.00,,---,0.25,VWS V14.01,2013-07-14 00:14:00,
2013-07-13 19:19:00,72.1,67.7,29.90,SSE,168,0.0,7.0,86,0.00,,---,0.25,VWS V14.01,2013-07-14 00:19:00,
2013-07-13 19:24:00,72.1,67.7,29.90,SE,126,4.0,5.0,86,0.00,,---,0.25,VWS V14.01,2013-07-14 00:24:00,
2013-07-13 19:29:00,72.1,67.3,29.90,SE,140,0.0,7.0,85,0.00,,---,0.25,VWS V14.01,2013-07-14 00:29:00,
2013-07-13 19:34:00,72.1,67.3,29.90,SE,130,0.0,5.0,85,0.00,,---,0.25,VWS V14.01,2013-07-14 00:34:00,
2013-07-13 19:39:00,72.5,67.7,29.90,SSE,148,3.0,7.0,85,0.00,,---,0.25,VWS V14.01,2013-07-14 00:39:00,
2013-07-13 19:44:00,72.7,67.9,29.90,SSE,150,5.0,6.0,85,0.00,,---,0.25,VWS V14.01,2013-07-14 00:44:00,
2013-07-13 19:49:00,72.7,67.2,29.89,SE,141,5.0,9.0,83,0.00,,---,0.25,VWS V14.01,2013-07-14 00:49:00,
2013-07-13 19:54:00,72.7,67.2,29.89,South,188,4.0,6.0,83,0.00,,---,0.25,VWS V14.01,2013-07-14 00:54:00,
2013-07-13 19:59:00,72.7,67.2,29.89,SSE,148,3.0,9.0,83,0.00,,---,0.25,VWS V14.01,2013-07-14 00:59:00,
2013-07-13 20:04:00,72.7,67.2,29.89,South,175,4.0,6.0,83,0.00,,---,0.25,VWS V14.01,2013-07-14 01:04:00,
2013-07-13 20:09:00,72.5,67.1,29.89,SSE,167,7.0,10.0,83,0.00,,---,0.25,VWS V14.01,2013-07-14 01:09:00,
2013-07-13 20:14:00,72.3,66.8,29.89,SSE,147,3.0,7.0,83,0.00,,---,0.25,VWS V14.01,2013-07-14 01:14:00,
2013-07-13 20:19:00,72.3,66.8,29.89,SSE,157,3.0,11.0,83,0.00,,---,0.25,VWS V14.01,2013-07-14 01:19:00,
2013-07-13 20:24:00,72.1,66.3,29.89,SE,145,2.0,6.0,82,0.00,,---,0.25,VWS V14.01,2013-07-14 01:24:00,
2013-07-13 20:29:00,72.1,65.9,29.89,SSW,202,5.0,7.0,81,0.00,,---,0.25,VWS V14.01,2013-07-14 01:29:00,
2013-07-13 20:34:00,72.0,65.9,29.89,South,176,3.0,6.0,81,0.00,,---,0.25,VWS V14.01,2013-07-14 01:34:00,
2013-07-13 20:39:00,71.8,65.3,29.89,South,179,3.0,7.0,80,0.00,,---,0.25,VWS V14.01,2013-07-14 01:39:00,
2013-07-13 20:43:00,71.8,64.9,29.89,SSE,147,3.0,8.0,79,0.00,,---,0.25,VWS V14.01,2013-07-14 01:43:00,
2013-07-13 20:48:00,71.6,64.8,29.88,South,172,4.0,8.0,79,0.00,,---,0.25,VWS V14.01,2013-07-14 01:48:00,
2013-07-13 20:53:00,71.6,64.8,29.88,South,174,2.0,5.0,79,0.00,,---,0.25,VWS V14.01,2013-07-14 01:53:00,
2013-07-13 20:58:00,71.5,65.0,29.88,SSE,162,1.0,6.0,80,0.00,,---,0.25,VWS V14.01,2013-07-14 01:58:00,
2013-07-13 21:03:00,71.3,64.5,29.89,SE,137,3.0,6.0,79,0.00,,---,0.25,VWS V14.01,2013-07-14 02:03:00,
2013-07-13 21:08:00,71.1,64.3,29.89,SSE,147,5.0,6.0,79,0.00,,---,0.25,VWS V14.01,2013-07-14 02:08:00,
2013-07-13 21:13:00,70.9,64.1,29.89,South,172,1.0,7.0,79,0.00,,---,0.25,VWS V14.01,2013-07-14 02:13:00,
2013-07-13 21:18:00,70.8,64.0,29.89,South,181,5.0,7.0,79,0.00,,---,0.25,VWS V14.01,2013-07-14 02:18:00,
2013-07-13 21:23:00,70.6,63.4,29.89,SSE,165,1.0,5.0,78,0.00,,---,0.25,VWS V14.01,2013-07-14 02:23:00,
2013-07-13 21:28:00,70.6,63.0,29.89,SSE,152,0.0,8.0,77,0.00,,---,0.25,VWS V14.01,2013-07-14 02:28:00,
2013-07-13 21:33:00,70.4,63.2,29.90,SE,140,1.0,3.0,78,0.00,,---,0.25,VWS V14.01,2013-07-14 02:33:00,
2013-07-13 21:38:00,70.3,63.1,29.90,SE,133,2.0,5.0,78,0.00,,---,0.25,VWS V14.01,2013-07-14 02:38:00,
2013-07-13 21:43:00,70.3,63.1,29.90,South,184,2.0,6.0,78,0.00,,---,0.25,VWS V14.01,2013-07-14 02:43:00,
2013-07-13 21:48:00,70.1,62.9,29.90,South,184,2.0,6.0,78,0.00,,---,0.25,VWS V14.01,2013-07-14 02:48:00,
2013-07-13 21:53:00,70.1,62.9,29.90,SSE,164,0.0,4.0,78,0.00,,---,0.25,VWS V14.01,2013-07-14 02:53:00,
2013-07-13 21:58:00,69.9,62.7,29.90,South,171,1.0,5.0,78,0.00,,---,0.25,VWS V14.01,2013-07-14 02:58:00,
2013-07-13 22:03:00,69.8,62.6,29.91,SSE,152,3.0,3.0,78,0.00,,---,0.25,VWS V14.01,2013-07-14 03:03:00,
2013-07-13 22:08:00,69.9,62.7,29.91,South,169,0.0,6.0,78,0.00,,---,0.25,VWS V14.01,2013-07-14 03:08:00,
2013-07-13 22:13:00,69.8,62.6,29.91,SSE,168,1.0,2.0,78,0.00,,---,0.25,VWS V14.01,2013-07-14 03:13:00,
2013-07-13 22:18:00,69.8,62.6,29.92,South,172,0.0,6.0,78,0.00,,---,0.25,VWS V14.01,2013-07-14 03:18:00,
2013-07-13 22:23:00,69.8,63.0,29.92,SSE,161,2.0,5.0,79,0.00,,---,0.25,VWS V14.01,2013-07-14 03:23:00,
2013-07-13 22:28:00,69.9,62.4,29.92,South,189,6.0,10.0,77,0.00,,---,0.25,VWS V14.01,2013-07-14 03:28:00,
2013-07-13 22:33:00,70.1,62.2,29.92,SSW,198,6.0,10.0,76,0.00,,---,0.25,VWS V14.01,2013-07-14 03:33:00,
2013-07-13 22:38:00,70.3,62.0,29.92,SSE,154,5.0,10.0,75,0.00,,---,0.25,VWS V14.01,2013-07-14 03:38:00,
2013-07-13 22:43:00,70.3,61.6,29.92,SSW,196,5.0,11.0,74,0.00,,---,0.25,VWS V14.01,2013-07-14 03:43:00,
2013-07-13 22:48:00,70.3,61.2,29.93,South,174,6.0,11.0,73,0.00,,---,0.25,VWS V14.01,2013-07-14 03:48:00,
2013-07-13 22:53:00,70.3,61.2,29.93,South,186,5.0,9.0,73,0.00,,---,0.25,VWS V14.01,2013-07-14 03:53:00,
2013-07-13 22:58:00,70.1,61.4,29.93,South,185,6.0,9.0,74,0.00,,---,0.25,VWS V14.01,2013-07-14 03:58:00,
2013-07-13 23:01:00,70.1,60.7,29.93,SSW,192,6.0,10.0,72,0.00,,---,0.25,VWS V14.01,2013-07-14 04:01:00,
2013-07-13 23:06:00,70.3,60.9,29.93,SSW,205,6.0,13.0,72,0.00,,---,0.25,VWS V14.01,2013-07-14 04:06:00,
2013-07-13 23:11:00,70.3,60.9,29.93,South,185,7.0,9.0,72,0.00,,---,0.25,VWS V14.01,2013-07-14 04:11:00,
2013-07-13 23:16:00,70.1,60.3,29.94,South,179,11.0,11.0,71,0.00,,---,0.25,VWS V14.01,2013-07-14 04:16:00,
2013-07-13 23:21:00,70.1,60.3,29.94,South,189,5.0,12.0,71,0.00,,---,0.25,VWS V14.01,2013-07-14 04:21:00,
2013-07-13 23:26:00,70.1,60.3,29.94,SSW,212,6.0,12.0,71,0.00,,---,0.25,VWS V14.01,2013-07-14 04:26:00,
2013-07-13 23:31:00,70.1,59.9,29.94,SSW,200,6.0,8.0,70,0.00,,---,0.25,VWS V14.01,2013-07-14 04:31:00,
2013-07-13 23:36:00,70.1,59.9,29.94,South,191,15.0,16.0,70,0.00,,---,0.25,VWS V14.01,2013-07-14 04:36:00,
2013-07-13 23:41:00,70.1,60.3,29.94,SSW,195,8.0,16.0,71,0.00,,---,0.25,VWS V14.01,2013-07-14 04:41:00,
2013-07-13 23:46:00,70.1,60.3,29.94,SW,220,6.0,13.0,71,0.00,,---,0.25,VWS V14.01,2013-07-14 04:46:00,
2013-07-13 23:51:00,69.9,60.1,29.94,SSW,210,6.0,16.0,71,0.00,,---,0.25,VWS V14.01,2013-07-14 04:51:00,
2013-07-13 23:56:00,69.8,60.0,29.94,SSW,198,6.0,13.0,71,0.00,,---,0.25,VWS V14.01,2013-07-14 04:56:00,